Time;durP1;ratioP1;P1;durP2;ratioP2;P2;SDS_P1;SDS_P2;PMS_P1;PMS_P2;Temp;Humidity;BMP_temperature;BMP_pressure;BME280_temperature;BME280_humidity;BME280_pressure;Samples;Min_cycle;Max_cycle;Signal;HPM_P1;HPM_P2
2021/09/10 14:40:34;;;;;;;6.53;2.90;;;;;;;;;;1009029;27;1482851;-73
2021/09/10 14:41:06;;;;;;;4.55;2.60;;;;;;;;;;1051290;27;102813;-71
2021/09/10 14:41:38;;;;;;;3.67;2.53;;;;;;;;;;1052957;27;100577;-71
2021/09/10 14:42:09;;;;;;;4.70;2.88;;;;;;;;;;1051687;27;100410;-76
2021/09/10 14:42:40;;;;;;;4.88;2.67;;;;;;;;;;1052421;27;100007;-72
2021/09/10 14:43:10;;;;;;;4.35;2.63;;;;;;;;;;1051453;27;100202;-69
2021/09/10 14:43:41;;;;;;;4.30;2.45;;;;;;;;;;1047019;27;100024;-70
2021/09/10 14:44:12;;;;;;;7.45;2.92;;;;;;;;;;1043411;27;101932;-71
2021/09/10 14:44:43;;;;;;;4.93;2.90;;;;;;;;;;1048853;27;99917;-68
2021/09/10 14:45:14;;;;;;;5.47;2.92;;;;;;;;;;1047292;27;101403;-69
2021/09/10 14:45:45;;;;;;;4.97;2.50;;;;;;;;;;1052724;27;100090;-69
2021/09/10 14:46:16;;;;;;;4.95;2.72;;;;;;;;;;1052013;27;100183;-68
2021/09/10 14:46:47;;;;;;;8.73;3.30;;;;;;;;;;1053415;27;99966;-68
2021/09/10 14:47:17;;;;;;;4.22;2.83;;;;;;;;;;1051185;27;100175;-68
2021/09/10 14:47:48;;;;;;;4.13;2.60;;;;;;;;;;1050244;27;100122;-69
2021/09/10 14:48:19;;;;;;;5.85;2.78;;;;;;;;;;1046815;27;101081;-69
2021/09/10 14:48:52;;;;;;;7.03;2.88;;;;;;;;;;1048297;27;100194;-69
2021/09/10 14:49:23;;;;;;;5.75;3.20;;;;;;;;;;1047186;27;100225;-69
2021/09/10 14:49:54;;;;;;;6.35;2.83;;;;;;;;;;1049309;27;99960;-69
2021/09/10 14:50:25;;;;;;;7.50;2.92;;;;;;;;;;1047832;27;100231;-68
2021/09/10 14:50:56;;;;;;;8.73;2.88;;;;;;;;;;1049172;27;99907;-68
2021/09/10 14:51:29;;;;;;;6.63;2.60;;;;;;;;;;1047403;27;101423;-68
2021/09/10 14:52:00;;;;;;;8.00;2.90;;;;;;;;;;1048745;27;99945;-69
2021/09/10 14:52:31;;;;;;;7.18;3.40;;;;;;;;;;1047536;27;100187;-69
2021/09/10 14:53:02;;;;;;;4.78;3.20;;;;;;;;;;1048694;27;99927;-68
2021/09/10 14:53:33;;;;;;;5.78;3.15;;;;;;;;;;1043223;27;103602;-69
2021/09/10 14:54:04;;;;;;;6.95;3.28;;;;;;;;;;1048256;27;99949;-68
2021/09/10 14:54:35;;;;;;;5.35;3.92;;;;;;;;;;1047253;27;100152;-68
2021/09/10 14:55:06;;;;;;;5.57;4.00;;;;;;;;;;1048902;27;100167;-69
2021/09/10 14:55:37;;;;;;;5.78;3.60;;;;;;;;;;1051194;27;101339;-70
2021/09/10 14:56:08;;;;;;;7.30;4.15;;;;;;;;;;1052444;27;99918;-69
2021/09/10 14:56:39;;;;;;;5.10;4.00;;;;;;;;;;1046980;27;100254;-70
2021/09/10 14:57:09;;;;;;;5.80;4.53;;;;;;;;;;1048341;27;100102;-72
2021/09/10 14:57:40;;;;;;;5.65;3.83;;;;;;;;;;1047509;27;100205;-74
2021/09/10 14:58:11;;;;;;;7.95;6.07;;;;;;;;;;1048854;27;99918;-70
2021/09/10 14:58:51;;;;;;;7.68;5.20;;;;;;;;;;1051827;27;99865;-72
2021/09/10 15:00:14;;;;;;;8.00;4.75;;;;;;;;;;1049551;27;103338;-72
2021/09/10 15:00:44;;;;;;;7.15;5.50;;;;;;;;;;1049090;27;100056;-72
2021/09/10 15:01:15;;;;;;;8.70;5.65;;;;;;;;;;1042307;27;100706;-72
2021/09/10 15:01:47;;;;;;;8.10;5.40;;;;;;;;;;1046846;27;99989;-72
2021/09/10 15:02:18;;;;;;;7.45;6.18;;;;;;;;;;1047205;27;101715;-72
2021/09/10 15:02:49;;;;;;;8.73;5.68;;;;;;;;;;1049076;27;99849;-70
2021/09/10 15:03:20;;;;;;;8.13;5.85;;;;;;;;;;1047827;27;100124;-70
2021/09/10 15:03:51;;;;;;;9.65;6.15;;;;;;;;;;1048880;27;100026;-71
2021/09/10 15:04:22;;;;;;;8.88;6.22;;;;;;;;;;1047405;27;100143;-74
2021/09/10 15:04:52;;;;;;;7.57;5.55;;;;;;;;;;1044409;27;99836;-74
2021/09/10 15:05:24;;;;;;;7.13;5.53;;;;;;;;;;1043294;27;100360;-81
2021/09/10 15:05:56;;;;;;;12.32;6.63;;;;;;;;;;1040039;28;100066;-71
2021/09/10 15:06:27;;;;;;;8.85;5.50;;;;;;;;;;1039735;27;101501;-71
2021/09/10 15:06:58;;;;;;;9.43;6.32;;;;;;;;;;1048897;27;100048;-70
2021/09/10 15:07:28;;;;;;;7.63;6.38;;;;;;;;;;1047530;27;100211;-70
2021/09/10 15:07:59;;;;;;;9.30;6.10;;;;;;;;;;1044211;27;100085;-71
2021/09/10 15:08:30;;;;;;;9.55;6.10;;;;;;;;;;1043313;27;100161;-71
2021/09/10 15:09:01;;;;;;;10.18;5.95;;;;;;;;;;1039782;28;100010;-72
2021/09/10 15:09:32;;;;;;;8.95;6.03;;;;;;;;;;1035721;27;100168;-73
2021/09/10 15:10:05;;;;;;;9.48;6.57;;;;;;;;;;1044720;27;99755;-70
2021/09/10 15:10:38;;;;;;;7.78;5.80;;;;;;;;;;1043058;27;100344;-72
2021/09/10 15:11:09;;;;;;;8.45;5.35;;;;;;;;;;1045240;27;99737;-71
2021/09/10 15:11:40;;;;;;;8.02;5.43;;;;;;;;;;1047585;27;100264;-76
2021/09/10 15:12:11;;;;;;;6.05;5.45;;;;;;;;;;1048857;27;99782;-71
2021/09/10 15:12:42;;;;;;;7.72;5.05;;;;;;;;;;1042710;27;101455;-71
2021/09/10 15:13:13;;;;;;;8.60;5.18;;;;;;;;;;1044467;27;100051;-72
2021/09/10 15:13:44;;;;;;;8.98;5.35;;;;;;;;;;1043755;27;100462;-71
2021/09/10 15:14:15;;;;;;;6.13;4.75;;;;;;;;;;1048693;27;99968;-72
2021/09/10 15:14:46;;;;;;;7.03;5.30;;;;;;;;;;1047643;27;100136;-72
2021/09/10 15:15:17;;;;;;;6.57;5.22;;;;;;;;;;1048889;27;100095;-72
2021/09/10 15:15:48;;;;;;;9.93;5.50;;;;;;;;;;1047387;27;100337;-73
2021/09/10 15:16:19;;;;;;;6.90;4.50;;;;;;;;;;1048618;27;99627;-74
2021/09/10 15:16:51;;;;;;;6.80;4.65;;;;;;;;;;1043592;27;100707;-72
2021/09/10 15:17:22;;;;;;;7.97;4.60;;;;;;;;;;1048890;27;99775;-72
2021/09/10 15:17:53;;;;;;;9.38;4.85;;;;;;;;;;1047261;27;100188;-82
2021/09/10 15:18:24;;;;;;;6.05;4.68;;;;;;;;;;1044355;27;99921;-75
2021/09/10 15:18:55;;;;;;;8.07;5.22;;;;;;;;;;1035197;28;103204;-75
2021/09/10 15:19:26;;;;;;;11.98;7.20;;;;;;;;;;1035932;28;100055;-77
2021/09/10 15:19:57;;;;;;;15.48;8.13;;;;;;;;;;1035355;27;100434;-69
2021/09/10 15:20:28;;;;;;;17.33;10.25;;;;;;;;;;1045094;27;99834;-75
2021/09/10 15:20:59;;;;;;;19.88;10.60;;;;;;;;;;1047232;27;100252;-77
2021/09/10 15:21:30;;;;;;;20.63;11.05;;;;;;;;;;1044084;27;99777;-74
2021/09/10 15:22:01;;;;;;;25.33;13.85;;;;;;;;;;1038534;28;103084;-72
2021/09/10 15:22:32;;;;;;;36.65;16.33;;;;;;;;;;1039769;27;100038;-75
2021/09/10 15:23:03;;;;;;;49.83;25.25;;;;;;;;;;1043193;27;100178;-73
2021/09/10 15:23:35;;;;;;;69.63;33.95;;;;;;;;;;1052281;27;100100;-76
2021/09/10 15:24:06;;;;;;;56.15;28.65;;;;;;;;;;1051583;27;100266;-74
2021/09/10 15:24:38;;;;;;;61.20;30.27;;;;;;;;;;1048586;27;99917;-73
2021/09/10 15:25:09;;;;;;;50.35;26.55;;;;;;;;;;1047066;27;101482;-82
2021/09/10 15:25:41;;;;;;;46.25;25.38;;;;;;;;;;1044641;27;99859;-74
2021/09/10 15:26:12;;;;;;;58.40;30.38;;;;;;;;;;1045701;27;101798;-72
2021/09/10 15:26:43;;;;;;;58.40;31.00;;;;;;;;;;1049944;27;100024;-77
2021/09/10 15:27:14;;;;;;;40.78;23.15;;;;;;;;;;1044458;27;100185;-78
2021/09/10 15:27:45;;;;;;;54.78;26.58;;;;;;;;;;1045753;27;100869;-75
2021/09/10 15:28:16;;;;;;;52.28;27.08;;;;;;;;;;1051133;27;101524;-76
2021/09/10 15:28:47;;;;;;;52.40;26.73;;;;;;;;;;1049487;27;99978;-77
2021/09/10 15:29:19;;;;;;;58.60;30.38;;;;;;;;;;1048849;27;101316;-78
2021/09/10 15:29:50;;;;;;;57.65;28.10;;;;;;;;;;1051135;27;99925;-77
2021/09/10 15:30:24;;;;;;;50.97;24.85;;;;;;;;;;1040813;27;101487;-77
2021/09/10 15:30:56;;;;;;;52.83;26.50;;;;;;;;;;1030022;28;99914;-77
2021/09/10 15:31:28;;;;;;;54.75;27.55;;;;;;;;;;1037021;28;102123;-78
2021/09/10 15:32:00;;;;;;;55.95;26.25;;;;;;;;;;1033679;28;100329;-78
2021/09/10 15:32:31;;;;;;;42.90;22.58;;;;;;;;;;1031819;28;100218;-75
2021/09/10 15:33:03;;;;;;;46.63;24.77;;;;;;;;;;1034375;28;100054;-76
2021/09/10 15:33:34;;;;;;;46.55;24.67;;;;;;;;;;1040600;27;101760;-76
2021/09/10 15:34:05;;;;;;;33.20;18.02;;;;;;;;;;1048729;27;100080;-77
2021/09/10 15:34:36;;;;;;;32.40;17.02;;;;;;;;;;1048464;27;101325;-76
2021/09/10 15:35:07;;;;;;;36.65;19.23;;;;;;;;;;1049345;27;100206;-75
2021/09/10 15:35:38;;;;;;;36.15;17.73;;;;;;;;;;1050958;27;101718;-78
2021/09/10 15:36:13;;;;;;;26.20;15.25;;;;;;;;;;1051798;27;99969;-77
2021/09/10 15:36:44;;;;;;;34.72;18.60;;;;;;;;;;1045367;27;100236;-77
2021/09/10 15:37:17;;;;;;;36.83;18.67;;;;;;;;;;1045709;27;100527;-76
2021/09/10 15:37:48;;;;;;;34.22;17.80;;;;;;;;;;1044095;27;100197;-79
2021/09/10 15:38:18;;;;;;;31.42;15.82;;;;;;;;;;1048908;27;100116;-79
2021/09/10 15:38:49;;;;;;;34.00;16.65;;;;;;;;;;1051685;27;100297;-79
2021/09/10 15:39:21;;;;;;;28.45;15.70;;;;;;;;;;1048729;27;100094;-77
2021/09/10 15:39:52;;;;;;;33.47;16.63;;;;;;;;;;1044850;27;101400;-79
2021/09/10 15:40:23;;;;;;;27.58;14.15;;;;;;;;;;1046357;27;100127;-78
2021/09/10 15:40:54;;;;;;;29.17;15.18;;;;;;;;;;1049156;27;100122;-78
2021/09/10 15:41:25;;;;;;;24.67;13.50;;;;;;;;;;1049511;27;99985;-79
2021/09/10 15:41:55;;;;;;;21.70;12.25;;;;;;;;;;1048939;27;100373;-78
2021/09/10 15:42:26;;;;;;;21.67;12.73;;;;;;;;;;1051941;27;100052;-79
2021/09/10 15:42:57;;;;;;;27.33;13.85;;;;;;;;;;1039822;27;103307;-74
2021/09/10 15:43:28;;;;;;;24.23;12.95;;;;;;;;;;1042462;27;100142;-79
2021/09/10 15:43:59;;;;;;;21.55;11.38;;;;;;;;;;1041594;27;100777;-78
2021/09/10 15:44:30;;;;;;;20.75;10.20;;;;;;;;;;1045463;27;99792;-76
2021/09/10 15:45:01;;;;;;;21.45;10.68;;;;;;;;;;1047753;27;101837;-75
2021/09/10 15:45:32;;;;;;;18.73;9.70;;;;;;;;;;1050208;27;100264;-78
2021/09/10 15:46:03;;;;;;;19.35;10.65;;;;;;;;;;1049963;27;100184;-77
2021/09/10 15:46:34;;;;;;;19.88;9.70;;;;;;;;;;1046334;27;100287;-78
2021/09/10 15:47:05;;;;;;;17.88;8.60;;;;;;;;;;1044015;27;101792;-81
2021/09/10 15:47:39;;;;;;;10.50;6.57;;;;;;;;;;1041224;27;100060;-84
2021/09/10 15:48:10;;;;;;;21.38;10.48;;;;;;;;;;1037189;27;100231;-82
2021/09/10 15:48:41;;;;;;;18.10;10.05;;;;;;;;;;1038548;28;100431;-83
2021/09/10 15:49:15;;;;;;;20.77;9.73;;;;;;;;;;1036042;28;100423;-82
2021/09/10 15:49:46;;;;;;;16.45;9.05;;;;;;;;;;1036200;28;100148;-82
2021/09/10 15:50:18;;;;;;;16.65;9.15;;;;;;;;;;1034549;27;102031;-82
2021/09/10 15:50:48;;;;;;;17.63;9.35;;;;;;;;;;1042624;27;100126;-81
2021/09/10 15:51:19;;;;;;;15.40;8.38;;;;;;;;;;1039613;27;100281;-81
2021/09/10 15:51:50;;;;;;;15.63;7.70;;;;;;;;;;1043406;27;100019;-81
2021/09/10 15:52:21;;;;;;;14.55;8.07;;;;;;;;;;1040940;27;101579;-81
2021/09/10 15:52:52;;;;;;;12.00;7.30;;;;;;;;;;1043406;27;100614;-76
2021/09/10 15:53:24;;;;;;;15.52;6.75;;;;;;;;;;1046021;27;101508;-78
2021/09/10 15:53:55;;;;;;;10.93;6.70;;;;;;;;;;1047731;27;100097;-79
2021/09/10 15:54:26;;;;;;;13.77;7.38;;;;;;;;;;1046436;27;100188;-81
2021/09/10 15:55:01;;;;;;;17.33;8.25;;;;;;;;;;1046362;27;100263;-80
2021/09/10 15:55:35;;;;;;;14.07;8.02;;;;;;;;;;1046336;27;100547;-80
2021/09/10 15:56:08;;;;;;;15.55;7.88;;;;;;;;;;1046962;27;100004;-79
2021/09/10 15:56:43;;;;;;;11.85;7.00;;;;;;;;;;1045082;27;100747;-80
2021/09/10 15:57:14;;;;;;;12.27;7.30;;;;;;;;;;1044732;27;101337;-80
2021/09/10 15:57:47;;;;;;;12.50;8.15;;;;;;;;;;1045529;27;101425;-80
2021/09/10 15:58:18;;;;;;;14.73;7.93;;;;;;;;;;1041559;27;100166;-80
2021/09/10 15:58:50;;;;;;;15.35;7.72;;;;;;;;;;1040585;27;101903;-80
2021/09/10 15:59:21;;;;;;;13.35;7.35;;;;;;;;;;1041312;28;99996;-79
2021/09/10 15:59:52;;;;;;;13.30;6.53;;;;;;;;;;1036820;28;103090;-81
2021/09/10 16:00:22;;;;;;;12.93;6.60;;;;;;;;;;1032360;28;100188;-80
2021/09/10 16:00:53;;;;;;;13.43;6.57;;;;;;;;;;1036067;28;100514;-81
2021/09/10 16:01:24;;;;;;;11.30;6.72;;;;;;;;;;1039223;27;100042;-79
2021/09/10 16:01:55;;;;;;;11.88;6.22;;;;;;;;;;1042973;27;101446;-77
2021/09/10 16:02:27;;;;;;;8.85;5.65;;;;;;;;;;1048290;27;99978;-80
2021/09/10 16:02:58;;;;;;;9.55;5.18;;;;;;;;;;1046797;27;100468;-77
2021/09/10 16:03:29;;;;;;;7.97;5.15;;;;;;;;;;1050740;27;99745;-77
2021/09/10 16:04:00;;;;;;;10.68;5.32;;;;;;;;;;1046311;27;100016;-79
2021/09/10 16:04:31;;;;;;;8.43;4.95;;;;;;;;;;1048304;27;100089;-79
2021/09/10 16:05:03;;;;;;;6.93;4.95;;;;;;;;;;1046186;27;101495;-79
2021/09/10 16:05:34;;;;;;;6.35;4.43;;;;;;;;;;1047853;27;100872;-80
2021/09/10 16:06:05;;;;;;;11.90;5.07;;;;;;;;;;1046316;27;101528;-80
2021/09/10 16:06:39;;;;;;;7.57;4.40;;;;;;;;;;1047339;27;99976;-80
2021/09/10 16:07:10;;;;;;;6.88;4.57;;;;;;;;;;1044927;27;100840;-79
2021/09/10 16:07:41;;;;;;;7.28;4.22;;;;;;;;;;1043099;27;99824;-79
2021/09/10 16:08:13;;;;;;;5.18;3.97;;;;;;;;;;1040952;27;100171;-79
2021/09/10 16:08:44;;;;;;;6.78;4.50;;;;;;;;;;1043072;27;100517;-78
2021/09/10 16:09:15;;;;;;;6.60;4.45;;;;;;;;;;1039334;27;100399;-81
2021/09/10 16:09:46;;;;;;;6.63;4.32;;;;;;;;;;1037980;28;100024;-79
2021/09/10 16:10:17;;;;;;;6.10;3.95;;;;;;;;;;1037251;28;101797;-79
2021/09/10 16:10:48;;;;;;;5.60;4.20;;;;;;;;;;1033983;28;101020;-79
2021/09/10 16:11:21;;;;;;;6.30;3.72;;;;;;;;;;1037167;28;101798;-79
2021/09/10 16:11:52;;;;;;;6.55;4.03;;;;;;;;;;1029532;28;99822;-80
2021/09/10 16:12:26;;;;;;;6.90;4.10;;;;;;;;;;1033135;28;101666;-80
2021/09/10 16:12:58;;;;;;;5.47;4.15;;;;;;;;;;1039894;27;99539;-80
2021/09/10 16:13:29;;;;;;;5.35;4.25;;;;;;;;;;1043886;27;101874;-81
2021/09/10 16:14:00;;;;;;;5.50;3.88;;;;;;;;;;1048191;27;99856;-80
2021/09/10 16:14:32;;;;;;;5.75;4.20;;;;;;;;;;1046990;27;100130;-79
2021/09/10 16:15:04;;;;;;;5.65;4.45;;;;;;;;;;1047236;27;99596;-80
2021/09/10 16:15:35;;;;;;;6.70;3.72;;;;;;;;;;1042377;27;100881;-80
2021/09/10 16:16:05;;;;;;;4.97;3.78;;;;;;;;;;1043743;27;100092;-81
2021/09/10 16:16:36;;;;;;;6.93;4.38;;;;;;;;;;1045864;27;101727;-81
2021/09/10 16:17:07;;;;;;;7.55;4.15;;;;;;;;;;1047928;27;100145;-79
2021/09/10 16:17:38;;;;;;;5.97;4.25;;;;;;;;;;1046011;27;101418;-81
2021/09/10 16:18:09;;;;;;;5.43;3.58;;;;;;;;;;1048410;27;99982;-80
2021/09/10 16:18:40;;;;;;;7.97;4.25;;;;;;;;;;1045698;27;100354;-80
2021/09/10 16:19:11;;;;;;;6.70;4.10;;;;;;;;;;1046640;27;100048;-80
2021/09/10 16:19:41;;;;;;;4.80;3.63;;;;;;;;;;1037339;28;101282;-80
2021/09/10 16:20:12;;;;;;;5.88;3.85;;;;;;;;;;1039228;27;100169;-74
2021/09/10 16:20:44;;;;;;;9.75;4.05;;;;;;;;;;1037858;27;102580;-76
2021/09/10 16:21:15;;;;;;;7.57;4.03;;;;;;;;;;1039632;27;100218;-73
2021/09/10 16:21:45;;;;;;;7.38;3.58;;;;;;;;;;1041928;27;101504;-76
2021/09/10 16:22:17;;;;;;;6.10;3.85;;;;;;;;;;1043206;27;100250;-74
2021/09/10 16:22:49;;;;;;;7.78;4.13;;;;;;;;;;1046569;27;100168;-74
2021/09/10 16:23:20;;;;;;;8.25;4.18;;;;;;;;;;1046842;27;100219;-71
2021/09/10 16:23:51;;;;;;;8.20;4.18;;;;;;;;;;1046804;27;101274;-72
2021/09/10 16:24:22;;;;;;;7.05;4.10;;;;;;;;;;1047235;27;99928;-70
2021/09/10 16:24:52;;;;;;;6.78;4.45;;;;;;;;;;1047033;27;100146;-69
2021/09/10 16:25:23;;;;;;;7.32;3.83;;;;;;;;;;1047359;27;100098;-69
2021/09/10 16:25:54;;;;;;;7.13;4.07;;;;;;;;;;1046676;27;100085;-70
2021/09/10 16:26:25;;;;;;;6.30;3.58;;;;;;;;;;1047493;27;100085;-73
2021/09/10 16:26:56;;;;;;;7.22;3.92;;;;;;;;;;1046394;27;100188;-73
2021/09/10 16:27:27;;;;;;;8.57;3.95;;;;;;;;;;1047840;27;100201;-73
2021/09/10 16:27:58;;;;;;;8.25;3.72;;;;;;;;;;1045570;27;103510;-73
2021/09/10 16:28:28;;;;;;;4.70;3.58;;;;;;;;;;1047856;27;100096;-72
2021/09/10 16:28:59;;;;;;;4.70;3.67;;;;;;;;;;1046337;27;100208;-69
2021/09/10 16:29:30;;;;;;;5.53;3.60;;;;;;;;;;1046186;27;100159;-71
2021/09/10 16:30:02;;;;;;;5.35;3.88;;;;;;;;;;1044960;27;100168;-71
2021/09/10 16:30:33;;;;;;;5.85;3.83;;;;;;;;;;1046127;27;100075;-71
2021/09/10 16:31:04;;;;;;;5.22;3.35;;;;;;;;;;1044936;27;101692;-73
2021/09/10 16:31:34;;;;;;;5.75;3.50;;;;;;;;;;1045219;27;100208;-71
2021/09/10 16:32:06;;;;;;;4.65;3.55;;;;;;;;;;1044586;27;100208;-69
2021/09/10 16:32:38;;;;;;;6.80;3.83;;;;;;;;;;1046685;27;100330;-69
2021/09/10 16:33:09;;;;;;;4.88;3.30;;;;;;;;;;1042084;27;101431;-69
2021/09/10 16:33:40;;;;;;;6.75;4.13;;;;;;;;;;1043649;27;100005;-69
2021/09/10 16:34:10;;;;;;;6.75;3.80;;;;;;;;;;1032850;28;102871;-71
2021/09/10 16:34:41;;;;;;;5.97;3.80;;;;;;;;;;1034059;27;99977;-70
2021/09/10 16:35:12;;;;;;;5.43;3.67;;;;;;;;;;1042191;27;100719;-70
2021/09/10 16:35:43;;;;;;;7.72;4.07;;;;;;;;;;1039145;27;100013;-68
2021/09/10 16:36:14;;;;;;;10.65;4.30;;;;;;;;;;1042429;27;100167;-69
2021/09/10 16:36:45;;;;;;;8.32;4.00;;;;;;;;;;1044492;27;100621;-70
2021/09/10 16:37:16;;;;;;;4.22;3.40;;;;;;;;;;1035522;28;102277;-72
2021/09/10 16:37:48;;;;;;;6.22;3.70;;;;;;;;;;1029865;28;99980;-69
2021/09/10 16:38:19;;;;;;;4.28;3.35;;;;;;;;;;1033037;28;100130;-70
2021/09/10 16:38:50;;;;;;;8.10;4.00;;;;;;;;;;1033614;28;99913;-69
2021/09/10 16:40:18;;;;;;;4.57;4.18;;;;;;;;;;1022419;28;100176;-70
2021/09/10 16:40:49;;;;;;;6.57;3.90;;;;;;;;;;1023042;28;101620;-72
2021/09/10 16:41:22;;;;;;;6.57;3.83;;;;;;;;;;1026122;28;100067;-72
2021/09/10 16:41:56;;;;;;;5.38;3.72;;;;;;;;;;1025241;28;103671;-73
2021/09/10 16:42:27;;;;;;;4.50;3.47;;;;;;;;;;1021577;28;99965;-78
2021/09/10 16:43:02;;;;;;;7.75;4.00;;;;;;;;;;1011533;28;101626;-76
2021/09/10 16:43:33;;;;;;;4.72;3.88;;;;;;;;;;1014007;28;100087;-75
2021/09/10 16:44:04;;;;;;;5.20;3.72;;;;;;;;;;1014122;28;100669;-75
2021/09/10 16:44:35;;;;;;;6.35;3.67;;;;;;;;;;1020067;28;100583;-76
2021/09/10 16:45:08;;;;;;;8.23;3.92;;;;;;;;;;1023326;28;100548;-75
2021/09/10 16:45:39;;;;;;;6.10;3.80;;;;;;;;;;1020327;28;99415;-73
2021/09/10 16:46:15;;;;;;;4.50;3.67;;;;;;;;;;1012768;28;101289;-74
2021/09/10 16:46:48;;;;;;;5.65;3.72;;;;;;;;;;1009562;28;100899;-69
2021/09/10 16:47:19;;;;;;;5.97;4.10;;;;;;;;;;1008826;28;100637;-69
2021/09/10 16:47:50;;;;;;;5.30;4.07;;;;;;;;;;1013874;28;100005;-66
2021/09/10 16:48:21;;;;;;;5.15;3.85;;;;;;;;;;1016799;28;100169;-67
2021/09/10 16:48:52;;;;;;;4.82;3.78;;;;;;;;;;1024613;28;100046;-74
2021/09/10 16:49:22;;;;;;;6.55;3.65;;;;;;;;;;1021797;28;101565;-70
2021/09/10 16:49:53;;;;;;;5.55;4.05;;;;;;;;;;1018491;28;100148;-73
2021/09/10 16:50:25;;;;;;;5.18;3.95;;;;;;;;;;1016476;28;100240;-75
2021/09/10 16:50:56;;;;;;;5.15;3.50;;;;;;;;;;1014489;28;100150;-79
2021/09/10 16:51:27;;;;;;;5.80;4.13;;;;;;;;;;1018702;28;100246;-75
2021/09/10 16:51:57;;;;;;;5.68;3.65;;;;;;;;;;1021828;28;100787;-71
2021/09/10 16:52:29;;;;;;;6.55;3.90;;;;;;;;;;1016550;28;101575;-72
2021/09/10 16:53:00;;;;;;;7.63;3.80;;;;;;;;;;1024731;28;100055;-71
2021/09/10 16:53:31;;;;;;;5.22;3.80;;;;;;;;;;1025486;28;100262;-70
2021/09/10 16:54:03;;;;;;;4.85;3.70;;;;;;;;;;1022476;28;100568;-71
2021/09/10 16:54:34;;;;;;;6.40;4.00;;;;;;;;;;1019742;28;100341;-71
2021/09/10 16:55:07;;;;;;;5.90;3.60;;;;;;;;;;1022113;28;100119;-71
2021/09/10 16:55:38;;;;;;;6.03;3.72;;;;;;;;;;1020861;28;100183;-70
2021/09/10 16:56:09;;;;;;;4.43;3.47;;;;;;;;;;1024514;28;100002;-70
2021/09/10 16:56:40;;;;;;;5.25;3.70;;;;;;;;;;1022683;28;101311;-75
2021/09/10 16:57:11;;;;;;;4.38;3.65;;;;;;;;;;1024542;28;100138;-73
2021/09/10 16:57:42;;;;;;;5.95;3.50;;;;;;;;;;1023223;28;100139;-72
2021/09/10 16:58:12;;;;;;;6.45;3.88;;;;;;;;;;1022061;28;100219;-75
2021/09/10 16:58:43;;;;;;;5.60;3.70;;;;;;;;;;1021289;28;100172;-70
2021/09/10 16:59:14;;;;;;;4.90;3.70;;;;;;;;;;1021992;28;99864;-72
2021/09/10 16:59:45;;;;;;;6.97;3.97;;;;;;;;;;1017437;28;100210;-70
2021/09/10 17:00:17;;;;;;;5.13;3.72;;;;;;;;;;1017321;28;100265;-73
2021/09/10 17:00:47;;;;;;;6.65;3.92;;;;;;;;;;1012657;28;100053;-71
2021/09/10 17:01:19;;;;;;;6.07;3.60;;;;;;;;;;1012291;28;100257;-79
2021/09/10 17:01:50;;;;;;;4.03;3.60;;;;;;;;;;1014621;28;100512;-72
2021/09/10 17:02:21;;;;;;;4.82;3.80;;;;;;;;;;1018161;28;100038;-72
2021/09/10 17:02:52;;;;;;;6.30;4.00;;;;;;;;;;1021073;28;100664;-72
2021/09/10 17:03:23;;;;;;;6.05;3.90;;;;;;;;;;1026386;28;100169;-72
2021/09/10 17:03:53;;;;;;;5.88;3.60;;;;;;;;;;1022525;28;100169;-74
2021/09/10 17:04:24;;;;;;;7.15;3.97;;;;;;;;;;1024014;28;100188;-70
2021/09/10 17:04:55;;;;;;;5.15;3.65;;;;;;;;;;1016821;28;103727;-72
2021/09/10 17:05:26;;;;;;;5.35;3.60;;;;;;;;;;1017979;28;100208;-72
2021/09/10 17:05:57;;;;;;;4.60;3.60;;;;;;;;;;1012777;28;100711;-72
2021/09/10 17:06:29;;;;;;;5.22;3.60;;;;;;;;;;1014564;28;100051;-72
2021/09/10 17:07:01;;;;;;;6.40;3.88;;;;;;;;;;1015254;28;100315;-72
2021/09/10 17:07:32;;;;;;;5.22;3.50;;;;;;;;;;1018116;28;99994;-76
2021/09/10 17:08:03;;;;;;;5.85;3.67;;;;;;;;;;1017107;28;101225;-73
2021/09/10 17:08:34;;;;;;;4.35;3.67;;;;;;;;;;1020357;28;99980;-78
2021/09/10 17:09:05;;;;;;;6.63;3.50;;;;;;;;;;1022343;28;100868;-77
2021/09/10 17:09:36;;;;;;;5.15;3.50;;;;;;;;;;1023923;28;100056;-71
2021/09/10 17:10:07;;;;;;;5.43;3.38;;;;;;;;;;1028908;28;100708;-70
2021/09/10 17:10:38;;;;;;;5.35;3.60;;;;;;;;;;1029116;28;100049;-72
2021/09/10 17:11:11;;;;;;;6.25;4.00;;;;;;;;;;1020473;28;101592;-75
2021/09/10 17:11:42;;;;;;;5.00;4.03;;;;;;;;;;1019938;28;100141;-71
2021/09/10 17:12:13;;;;;;;4.78;3.40;;;;;;;;;;1018614;28;100870;-80
2021/09/10 17:12:44;;;;;;;4.45;3.70;;;;;;;;;;1019982;28;100063;-74
2021/09/10 17:13:15;;;;;;;6.95;4.25;;;;;;;;;;1018153;28;100357;-74
2021/09/10 17:13:46;;;;;;;6.00;3.83;;;;;;;;;;1018626;28;100720;-76
2021/09/10 17:14:17;;;;;;;5.32;4.00;;;;;;;;;;1015464;28;100230;-74
2021/09/10 17:14:53;;;;;;;6.20;3.75;;;;;;;;;;1022991;28;100047;-71
2021/09/10 17:15:26;;;;;;;5.85;3.83;;;;;;;;;;1022150;28;101294;-76
2021/09/10 17:15:57;;;;;;;5.22;3.63;;;;;;;;;;1022887;28;100003;-75
2021/09/10 17:17:18;;;;;;;7.70;3.63;;;;;;;;;;1058264;27;100130;-78
2021/09/10 17:17:48;;;;;;;5.55;3.88;;;;;;;;;;1051560;27;100423;-76
2021/09/10 17:18:19;;;;;;;4.60;4.00;;;;;;;;;;1047987;27;99726;-71
2021/09/10 17:18:50;;;;;;;4.63;3.55;;;;;;;;;;1046893;27;100124;-73
2021/09/10 17:19:21;;;;;;;6.97;4.03;;;;;;;;;;1048556;27;100045;-73
2021/09/10 17:19:52;;;;;;;6.72;3.67;;;;;;;;;;1038741;27;102330;-75
2021/09/10 17:20:23;;;;;;;5.32;3.72;;;;;;;;;;1044436;27;100104;-74
2021/09/10 17:20:53;;;;;;;5.30;3.58;;;;;;;;;;1038460;28;101575;-71
2021/09/10 17:21:25;;;;;;;7.75;3.90;;;;;;;;;;1040491;27;101494;-72
2021/09/10 17:21:56;;;;;;;5.78;3.75;;;;;;;;;;1047287;27;100383;-74
2021/09/10 17:22:26;;;;;;;4.75;3.63;;;;;;;;;;1048562;27;100047;-71
2021/09/10 17:22:57;;;;;;;6.90;4.20;;;;;;;;;;1054215;27;100108;-73
2021/09/10 17:23:28;;;;;;;10.20;4.65;;;;;;;;;;1046258;27;100023;-71
2021/09/10 17:23:59;;;;;;;11.65;4.10;;;;;;;;;;1031642;28;100313;-71
2021/09/10 17:24:31;;;;;;;5.50;3.80;;;;;;;;;;1031296;28;99999;-72
2021/09/10 17:25:02;;;;;;;7.40;4.18;;;;;;;;;;1030461;28;100586;-72
2021/09/10 17:25:33;;;;;;;6.75;4.05;;;;;;;;;;1032187;28;100136;-71
2021/09/10 17:26:04;;;;;;;6.88;3.40;;;;;;;;;;1039286;27;100383;-69
2021/09/10 17:26:35;;;;;;;5.85;3.90;;;;;;;;;;1044158;27;100067;-69
2021/09/10 17:27:06;;;;;;;5.97;3.67;;;;;;;;;;1038964;27;101336;-76
2021/09/10 17:27:37;;;;;;;5.43;3.97;;;;;;;;;;1041808;27;99882;-73
2021/09/10 17:28:08;;;;;;;5.45;4.00;;;;;;;;;;1043273;27;100073;-74
2021/09/10 17:28:39;;;;;;;5.38;4.03;;;;;;;;;;1044592;27;99961;-76
2021/09/10 17:29:10;;;;;;;7.18;3.78;;;;;;;;;;1047146;27;100155;-77
2021/09/10 17:29:40;;;;;;;9.10;4.13;;;;;;;;;;1035778;28;99978;-77
2021/09/10 17:30:12;;;;;;;6.28;3.95;;;;;;;;;;1030430;28;100249;-77
2021/09/10 17:30:43;;;;;;;9.73;4.63;;;;;;;;;;1029441;28;100193;-73
2021/09/10 17:31:14;;;;;;;4.93;3.85;;;;;;;;;;1034534;27;100173;-76
2021/09/10 17:31:44;;;;;;;4.85;3.88;;;;;;;;;;1043187;27;100170;-77
2021/09/10 17:32:15;;;;;;;6.13;3.80;;;;;;;;;;1045296;27;101840;-77
2021/09/10 17:32:46;;;;;;;8.82;3.90;;;;;;;;;;1054428;27;100090;-77
2021/09/10 17:33:17;;;;;;;6.43;4.05;;;;;;;;;;1045905;27;103721;-77
2021/09/10 17:33:48;;;;;;;4.85;3.60;;;;;;;;;;1048833;27;99907;-76
2021/09/10 17:34:19;;;;;;;9.57;4.32;;;;;;;;;;1046556;27;100080;-74
2021/09/10 17:34:51;;;;;;;6.95;4.13;;;;;;;;;;1043483;27;100086;-76
2021/09/10 17:35:22;;;;;;;6.20;4.25;;;;;;;;;;1045018;27;100161;-74
2021/09/10 17:35:53;;;;;;;4.65;3.55;;;;;;;;;;1048445;27;99878;-74
2021/09/10 17:36:24;;;;;;;6.32;3.80;;;;;;;;;;1046927;27;100201;-73
2021/09/10 17:36:55;;;;;;;7.20;4.22;;;;;;;;;;1052800;27;99824;-75
2021/09/10 17:37:26;;;;;;;4.32;3.72;;;;;;;;;;1051426;27;101707;-74
2021/09/10 17:37:57;;;;;;;7.43;4.00;;;;;;;;;;1045916;27;100046;-76
2021/09/10 17:38:28;;;;;;;7.50;3.90;;;;;;;;;;1046927;27;100400;-78
2021/09/10 17:38:59;;;;;;;5.78;3.78;;;;;;;;;;1048812;27;99861;-75
2021/09/10 17:39:30;;;;;;;4.85;3.55;;;;;;;;;;1043332;27;100540;-83
2021/09/10 17:40:02;;;;;;;7.75;4.57;;;;;;;;;;1048345;27;100207;-76
2021/09/10 17:40:33;;;;;;;6.05;3.83;;;;;;;;;;1046381;27;101511;-76
2021/09/10 17:41:05;;;;;;;9.43;4.43;;;;;;;;;;1048718;27;100143;-75
2021/09/10 17:41:37;;;;;;;6.30;3.83;;;;;;;;;;1042799;27;101731;-75
2021/09/10 17:42:07;;;;;;;6.22;3.65;;;;;;;;;;1045130;27;100005;-77
2021/09/10 17:42:38;;;;;;;7.70;4.15;;;;;;;;;;1045537;27;100190;-81
2021/09/10 17:43:10;;;;;;;8.18;4.18;;;;;;;;;;1050721;27;100199;-77
2021/09/10 17:43:41;;;;;;;7.05;4.05;;;;;;;;;;1054147;27;101596;-79
2021/09/10 17:44:12;;;;;;;7.25;4.13;;;;;;;;;;1050372;27;100001;-77
2021/09/10 17:44:43;;;;;;;6.80;3.83;;;;;;;;;;1038490;28;100710;-81
2021/09/10 17:45:14;;;;;;;11.23;4.38;;;;;;;;;;1039704;28;100036;-74
2021/09/10 17:45:45;;;;;;;5.70;3.60;;;;;;;;;;1038577;27;101586;-77
2021/09/10 17:46:16;;;;;;;4.93;3.50;;;;;;;;;;1039889;27;100089;-77
2021/09/10 17:46:47;;;;;;;6.57;3.90;;;;;;;;;;1042770;27;102494;-81